Time,TemperatureF,DewpointF,PressureIn,WindDirection,WindDirectionDegrees,WindSpeedMPH,WindSpeedGustMPH,Humidity,HourlyPrecipIn,Conditions,Clouds,dailyrainin,SolarRadiationWatts/m^2,SoftwareType,DateUTC
2013-07-24 00:00:00,67.7,48.3,29.70,SSW,195,1.0,-999.0,46,-99.99,,,0.00,0.0,cwc,2013-07-24 06:00:00,
2013-07-24 00:05:00,67.2,48.1,29.70,SSW,196,1.0,-999.0,47,-99.99,,,0.00,0.0,cwc,2013-07-24 06:05:00,
2013-07-24 00:10:00,67.2,48.1,29.71,SSW,196,0.0,-999.0,47,-99.99,,,0.00,0.0,cwc,2013-07-24 06:10:00,
2013-07-24 00:15:00,67.3,48.2,29.71,SSW,196,0.0,-999.0,47,-99.99,,,0.00,0.0,cwc,2013-07-24 06:15:00,
2013-07-24 00:20:00,67.5,48.1,29.71,SSW,195,1.0,-999.0,46,-99.99,,,0.00,0.0,cwc,2013-07-24 06:20:00,
2013-07-24 00:25:00,68.0,47.8,29.71,SSW,196,1.0,-999.0,44,-99.99,,,0.00,0.0,cwc,2013-07-24 06:25:00,
2013-07-24 00:30:00,68.3,48.1,29.71,SSW,196,0.0,-999.0,44,-99.99,,,0.00,0.0,cwc,2013-07-24 06:30:00,
2013-07-24 00:40:00,67.8,48.0,29.71,SSW,195,4.0,-999.0,45,-99.99,,,0.00,0.0,cwc,2013-07-24 06:40:00,
2013-07-24 00:45:00,67.3,47.5,29.71,SSW,196,1.0,-999.0,45,-99.99,,,0.00,0.0,cwc,2013-07-24 06:45:00,
2013-07-24 00:55:00,67.3,47.5,29.71,SSW,196,0.0,-999.0,45,-99.99,,,0.00,0.0,cwc,2013-07-24 06:55:00,
2013-07-24 01:00:00,67.3,47.9,29.71,SSW,195,1.0,-999.0,46,-99.99,,,0.00,0.0,cwc,2013-07-24 07:00:00,
2013-07-24 01:05:00,67.3,47.5,29.71,SSW,196,2.0,-999.0,45,-99.99,,,0.00,0.0,cwc,2013-07-24 07:05:00,
2013-07-24 01:15:00,67.4,47.6,29.71,SSW,196,0.0,-999.0,45,-99.99,,,0.00,0.0,cwc,2013-07-24 07:15:00,
2013-07-24 01:20:00,67.6,47.8,29.71,SSW,196,1.0,-999.0,45,-99.99,,,0.00,0.0,cwc,2013-07-24 07:20:00,
2013-07-24 01:25:00,67.6,47.8,29.71,SSW,196,0.0,-999.0,45,-99.99,,,0.00,0.0,cwc,2013-07-24 07:25:00,
2013-07-24 01:30:00,67.6,48.5,29.71,SSW,196,0.0,-999.0,47,-99.99,,,0.00,0.0,cwc,2013-07-24 07:30:00,
2013-07-24 01:40:00,67.3,48.6,29.71,SSW,196,0.0,-999.0,48,-99.99,,,0.00,0.0,cwc,2013-07-24 07:40:00,
2013-07-24 01:45:00,67.1,48.4,29.71,SSW,196,0.0,-999.0,48,-99.99,,,0.00,0.0,cwc,2013-07-24 07:45:00,
2013-07-24 01:50:00,67.0,48.3,29.71,SSW,196,0.0,-999.0,48,-99.99,,,0.00,0.0,cwc,2013-07-24 07:50:00,
2013-07-24 02:00:00,67.3,48.2,29.71,SSW,196,2.0,-999.0,47,-99.99,,,0.00,0.0,cwc,2013-07-24 08:00:00,
2013-07-24 02:10:00,67.1,49.1,29.70,SSW,195,0.0,-999.0,50,-99.99,,,0.00,0.0,cwc,2013-07-24 08:10:00,
2013-07-24 02:15:00,66.9,48.2,29.70,SSW,195,0.0,-999.0,48,-99.99,,,0.00,0.0,cwc,2013-07-24 08:15:00,
2013-07-24 02:25:00,66.5,48.5,29.70,SSW,196,0.0,-999.0,50,-99.99,,,0.00,0.0,cwc,2013-07-24 08:25:00,
2013-07-24 02:30:00,66.3,48.3,29.70,SSW,195,0.0,-999.0,50,-99.99,,,0.00,0.0,cwc,2013-07-24 08:30:00,
2013-07-24 02:35:00,66.1,48.1,29.70,SSW,196,0.0,-999.0,50,-99.99,,,0.00,0.0,cwc,2013-07-24 08:35:00,
2013-07-24 02:40:00,66.1,48.1,29.70,SSW,196,0.0,-999.0,50,-99.99,,,0.00,0.0,cwc,2013-07-24 08:40:00,
2013-07-24 02:45:00,66.0,48.0,29.70,SSW,195,0.0,-999.0,50,-99.99,,,0.00,0.0,cwc,2013-07-24 08:45:00,
2013-07-24 02:50:00,66.0,47.6,29.70,SSW,195,1.0,-999.0,49,-99.99,,,0.00,0.0,cwc,2013-07-24 08:50:00,
2013-07-24 02:55:00,65.8,47.4,29.70,SSW,196,2.0,-999.0,49,-99.99,,,0.00,0.0,cwc,2013-07-24 08:55:00,
2013-07-24 03:00:00,66.0,47.6,29.70,SSW,196,0.0,-999.0,49,-99.99,,,0.00,0.0,cwc,2013-07-24 09:00:00,
2013-07-24 03:05:00,65.9,48.6,29.70,SSW,196,2.0,-999.0,52,-99.99,,,0.00,0.0,cwc,2013-07-24 09:05:00,
2013-07-24 03:10:00,65.5,47.9,29.70,SSW,195,0.0,-999.0,51,-99.99,,,0.00,0.0,cwc,2013-07-24 09:10:00,
2013-07-24 03:15:00,65.3,48.4,29.70,SSW,196,0.0,-999.0,53,-99.99,,,0.00,0.0,cwc,2013-07-24 09:15:00,
2013-07-24 03:20:00,64.9,48.0,29.70,SSW,196,2.0,-999.0,53,-99.99,,,0.00,0.0,cwc,2013-07-24 09:20:00,
2013-07-24 03:30:00,64.8,47.5,29.70,SSW,196,2.0,-999.0,52,-99.99,,,0.00,0.0,cwc,2013-07-24 09:30:00,
2013-07-24 03:35:00,64.5,46.9,29.69,SSW,196,3.0,-999.0,51,-99.99,,,0.00,0.0,cwc,2013-07-24 09:35:00,
2013-07-24 03:45:00,63.8,46.5,29.69,SSW,195,1.0,-999.0,52,-99.99,,,0.00,0.0,cwc,2013-07-24 09:45:00,
2013-07-24 03:50:00,63.7,46.1,29.69,SSW,196,0.0,-999.0,51,-99.99,,,0.00,0.0,cwc,2013-07-24 09:50:00,
2013-07-24 03:55:00,63.6,47.0,29.69,SSW,196,0.0,-999.0,54,-99.99,,,0.00,0.0,cwc,2013-07-24 09:55:00,
2013-07-24 04:00:00,63.4,47.2,29.70,SSW,195,0.0,-999.0,55,-99.99,,,0.00,0.0,cwc,2013-07-24 10:00:00,
2013-07-24 04:05:00,63.2,46.6,29.70,SSW,195,0.0,-999.0,54,-99.99,,,0.00,0.0,cwc,2013-07-24 10:05:00,
2013-07-24 04:10:00,63.2,47.0,29.70,SSW,196,0.0,-999.0,55,-99.99,,,0.00,0.0,cwc,2013-07-24 10:10:00,
2013-07-24 04:15:00,63.0,45.7,29.70,SSW,196,2.0,-999.0,52,-99.99,,,0.00,0.0,cwc,2013-07-24 10:15:00,
2013-07-24 04:20:00,62.5,45.6,29.70,SSW,196,1.0,-999.0,53,-99.99,,,0.00,0.0,cwc,2013-07-24 10:20:00,
2013-07-24 04:25:00,62.3,45.4,29.70,SSW,195,2.0,-999.0,53,-99.99,,,0.00,0.0,cwc,2013-07-24 10:25:00,
2013-07-24 04:30:00,62.1,45.2,29.70,SSW,196,1.0,-999.0,53,-99.99,,,0.00,0.0,cwc,2013-07-24 10:30:00,
2013-07-24 04:35:00,61.9,44.6,29.70,SSW,196,0.0,-999.0,52,-99.99,,,0.00,0.0,cwc,2013-07-24 10:35:00,
2013-07-24 04:40:00,61.7,44.8,29.70,SSW,195,2.0,-999.0,53,-99.99,,,0.00,0.0,cwc,2013-07-24 10:40:00,
2013-07-24 04:45:00,61.2,44.6,29.71,SSW,196,3.0,-999.0,54,-99.99,,,0.00,0.0,cwc,2013-07-24 10:45:00,
2013-07-24 04:50:00,61.0,44.8,29.71,SSW,196,4.0,-999.0,55,-99.99,,,0.00,0.0,cwc,2013-07-24 10:50:00,
2013-07-24 04:55:00,61.3,45.1,29.71,SSW,196,0.0,-999.0,55,-99.99,,,0.00,0.0,cwc,2013-07-24 10:55:00,
2013-07-24 05:00:00,61.4,44.8,29.71,SSW,195,0.0,-999.0,54,-99.99,,,0.00,0.0,cwc,2013-07-24 11:00:00,
2013-07-24 05:05:00,61.1,44.5,29.71,SSW,196,0.0,-999.0,54,-99.99,,,0.00,0.0,cwc,2013-07-24 11:05:00,
2013-07-24 05:10:00,60.7,44.5,29.71,SSW,196,2.0,-999.0,55,-99.99,,,0.00,0.0,cwc,2013-07-24 11:10:00,
2013-07-24 05:15:00,60.4,44.2,29.72,SSW,196,0.0,-999.0,55,-99.99,,,0.00,0.0,cwc,2013-07-24 11:15:00,
2013-07-24 05:20:00,60.1,44.3,29.72,SSW,196,0.0,-999.0,56,-99.99,,,0.00,0.0,cwc,2013-07-24 11:20:00,
2013-07-24 05:25:00,59.8,44.0,29.72,SSW,196,2.0,-999.0,56,-99.99,,,0.00,0.0,cwc,2013-07-24 11:25:00,
2013-07-24 05:30:00,59.4,43.2,29.72,SSW,196,2.0,-999.0,55,-99.99,,,0.00,0.0,cwc,2013-07-24 11:30:00,
2013-07-24 05:40:00,59.0,43.9,29.72,SSW,195,0.0,-999.0,58,-99.99,,,0.00,0.0,cwc,2013-07-24 11:40:00,
2013-07-24 05:45:00,59.0,43.5,29.72,SSW,196,1.0,-999.0,57,-99.99,,,0.00,0.0,cwc,2013-07-24 11:45:00,
2013-07-24 05:50:00,59.0,43.9,29.73,SSW,196,3.0,-999.0,58,-99.99,,,0.00,0.0,cwc,2013-07-24 11:50:00,
2013-07-24 05:55:00,59.0,44.2,29.72,SSW,195,0.0,-999.0,59,-99.99,,,0.00,0.0,cwc,2013-07-24 11:55:00,
2013-07-24 06:00:00,59.0,44.2,29.72,SSW,196,0.0,-999.0,59,-99.99,,,0.00,0.0,cwc,2013-07-24 12:00:00,
2013-07-24 06:05:00,59.0,44.2,29.73,SSW,196,0.0,-999.0,59,-99.99,,,0.00,0.0,cwc,2013-07-24 12:05:00,
2013-07-24 06:10:00,58.6,43.8,29.73,SSW,195,1.0,-999.0,59,-99.99,,,0.00,5.0,cwc,2013-07-24 12:10:00,
2013-07-24 06:15:00,58.5,44.1,29.73,SSW,195,1.0,-999.0,60,-99.99,,,0.00,9.0,cwc,2013-07-24 12:15:00,
2013-07-24 06:20:00,58.6,43.5,29.73,SSW,196,0.0,-999.0,58,-99.99,,,0.00,12.0,cwc,2013-07-24 12:20:00,
2013-07-24 06:25:00,58.4,43.6,29.73,SSW,196,3.0,-999.0,59,-99.99,,,0.00,16.0,cwc,2013-07-24 12:25:00,
2013-07-24 06:30:00,58.4,44.0,29.73,SSW,196,0.0,-999.0,60,-99.99,,,0.00,21.0,cwc,2013-07-24 12:30:00,
2013-07-24 06:35:00,58.5,44.1,29.73,SSW,195,0.0,-999.0,60,-99.99,,,0.00,35.0,cwc,2013-07-24 12:35:00,
2013-07-24 06:45:00,58.6,45.3,29.73,SSW,196,0.0,-999.0,63,-99.99,,,0.00,51.0,cwc,2013-07-24 12:45:00,
2013-07-24 06:50:00,58.9,45.2,29.73,SSW,195,0.0,-999.0,62,-99.99,,,0.00,60.0,cwc,2013-07-24 12:50:00,
2013-07-24 06:55:00,59.0,45.0,29.73,SSW,196,0.0,-999.0,61,-99.99,,,0.00,51.0,cwc,2013-07-24 12:55:00,
2013-07-24 07:00:00,59.0,45.0,29.73,SSW,196,0.0,-999.0,61,-99.99,,,0.00,49.0,cwc,2013-07-24 13:00:00,
2013-07-24 07:05:00,59.1,45.1,29.73,SSW,196,0.0,-999.0,61,-99.99,,,0.00,54.0,cwc,2013-07-24 13:05:00,
2013-07-24 07:10:00,59.5,46.9,29.74,SSW,195,0.0,-999.0,65,-99.99,,,0.00,62.0,cwc,2013-07-24 13:10:00,
2013-07-24 07:15:00,59.8,47.9,29.74,SSW,196,0.0,-999.0,67,-99.99,,,0.00,69.0,cwc,2013-07-24 13:15:00,
2013-07-24 07:20:00,59.9,47.7,29.74,SSW,196,0.0,-999.0,66,-99.99,,,0.00,77.0,cwc,2013-07-24 13:20:00,
2013-07-24 07:25:00,60.0,47.4,29.74,SSW,195,0.0,-999.0,65,-99.99,,,0.00,88.0,cwc,2013-07-24 13:25:00,
2013-07-24 07:30:00,60.1,47.9,29.74,SSW,195,0.0,-999.0,66,-99.99,,,0.00,93.0,cwc,2013-07-24 13:30:00,
2013-07-24 07:35:00,60.4,47.8,29.74,SSW,196,0.0,-999.0,65,-99.99,,,0.00,102.0,cwc,2013-07-24 13:35:00,
2013-07-24 07:40:00,60.7,47.0,29.74,SSW,196,1.0,-999.0,62,-99.99,,,0.00,114.0,cwc,2013-07-24 13:40:00,
2013-07-24 07:45:00,61.6,46.8,29.74,SSW,196,0.0,-999.0,59,-99.99,,,0.00,128.0,cwc,2013-07-24 13:45:00,
2013-07-24 07:50:00,62.7,48.7,29.74,SSW,195,0.0,-999.0,61,-99.99,,,0.00,137.0,cwc,2013-07-24 13:50:00,
2013-07-24 07:55:00,63.5,49.1,29.74,SSW,196,0.0,-999.0,60,-99.99,,,0.00,142.0,cwc,2013-07-24 13:55:00,
2013-07-24 08:00:00,64.1,49.7,29.74,SSW,195,0.0,-999.0,60,-99.99,,,0.00,160.0,cwc,2013-07-24 14:00:00,
2013-07-24 08:05:00,64.8,51.1,29.75,SSW,195,0.0,-999.0,62,-99.99,,,0.00,197.0,cwc,2013-07-24 14:05:00,
2013-07-24 08:10:00,65.4,49.2,29.75,SSW,196,0.0,-999.0,55,-99.99,,,0.00,199.0,cwc,2013-07-24 14:10:00,
2013-07-24 08:15:00,66.1,49.5,29.74,SSW,196,1.0,-999.0,54,-99.99,,,0.00,343.0,cwc,2013-07-24 14:15:00,
2013-07-24 08:25:00,67.4,49.8,29.74,SSW,198,3.0,-999.0,51,-99.99,,,0.00,232.0,cwc,2013-07-24 14:25:00,
2013-07-24 08:30:00,68.1,49.7,29.74,SSW,204,2.0,-999.0,49,-99.99,,,0.00,232.0,cwc,2013-07-24 14:30:00,
2013-07-24 08:35:00,68.6,50.2,29.74,SW,215,3.0,-999.0,49,-99.99,,,0.00,223.0,cwc,2013-07-24 14:35:00,
2013-07-24 08:40:00,69.1,50.0,29.74,SW,223,2.0,-999.0,47,-99.99,,,0.00,206.0,cwc,2013-07-24 14:40:00,
2013-07-24 08:45:00,69.6,50.5,29.74,SW,223,1.0,-999.0,47,-99.99,,,0.00,214.0,cwc,2013-07-24 14:45:00,
2013-07-24 08:50:00,70.0,50.2,29.74,SW,223,0.0,-999.0,45,-99.99,,,0.00,246.0,cwc,2013-07-24 14:50:00,
2013-07-24 08:55:00,70.5,50.7,29.74,SW,223,0.0,-999.0,45,-99.99,,,0.00,267.0,cwc,2013-07-24 14:55:00,
2013-07-24 09:05:00,71.5,51.7,29.74,SW,230,0.0,-999.0,45,-99.99,,,0.00,257.0,cwc,2013-07-24 15:05:00,
2013-07-24 09:10:00,71.9,51.7,29.73,SW,230,0.0,-999.0,44,-99.99,,,0.00,309.0,cwc,2013-07-24 15:10:00,
2013-07-24 09:15:00,72.5,52.0,29.73,SW,230,0.0,-999.0,43,-99.99,,,0.00,295.0,cwc,2013-07-24 15:15:00,
2013-07-24 09:20:00,73.0,52.1,29.73,SW,230,0.0,-999.0,42,-99.99,,,0.00,417.0,cwc,2013-07-24 15:20:00,
2013-07-24 09:25:00,73.6,52.4,29.73,SW,230,0.0,-999.0,41,-99.99,,,0.00,397.0,cwc,2013-07-24 15:25:00,
2013-07-24 09:30:00,74.4,53.2,29.73,WSW,237,1.0,-999.0,41,-99.99,,,0.00,547.0,cwc,2013-07-24 15:30:00,
2013-07-24 09:35:00,75.3,53.7,29.73,WSW,237,3.0,-999.0,40,-99.99,,,0.00,564.0,cwc,2013-07-24 15:35:00,
2013-07-24 09:40:00,76.2,54.2,29.73,WSW,237,4.0,-999.0,39,-99.99,,,0.00,573.0,cwc,2013-07-24 15:40:00,
2013-07-24 09:45:00,77.1,55.1,29.72,WSW,237,2.0,-999.0,39,-99.99,,,0.00,640.0,cwc,2013-07-24 15:45:00,
2013-07-24 09:50:00,78.0,55.3,29.72,WSW,238,2.0,-999.0,37,-99.99,,,0.00,619.0,cwc,2013-07-24 15:50:00,
2013-07-24 09:55:00,79.0,56.3,29.72,WSW,240,2.0,-999.0,37,-99.99,,,0.00,703.0,cwc,2013-07-24 15:55:00,
2013-07-24 10:00:00,80.0,57.0,29.72,WSW,240,0.0,-999.0,36,-99.99,,,0.00,715.0,cwc,2013-07-24 16:00:00,
2013-07-24 10:10:00,81.7,58.3,29.71,WSW,242,2.0,-999.0,35,-99.99,,,0.00,738.0,cwc,2013-07-24 16:10:00,
2013-07-24 10:15:00,82.6,58.5,29.72,WSW,242,1.0,-999.0,33,-99.99,,,0.00,747.0,cwc,2013-07-24 16:15:00,
2013-07-24 10:25:00,84.5,59.3,29.71,WSW,243,0.0,-999.0,30,-99.99,,,0.00,779.0,cwc,2013-07-24 16:25:00,
2013-07-24 10:30:00,85.2,60.7,29.71,WSW,244,1.0,-999.0,32,-99.99,,,0.00,795.0,cwc,2013-07-24 16:30:00,
2013-07-24 10:35:00,85.9,60.7,29.71,WSW,256,1.0,-999.0,30,-99.99,,,0.00,802.0,cwc,2013-07-24 16:35:00,
2013-07-24 10:40:00,86.1,60.5,29.71,West,267,5.0,-999.0,29,-99.99,,,0.00,812.0,cwc,2013-07-24 16:40:00,
2013-07-24 10:50:00,87.1,60.8,29.71,West,272,3.0,-999.0,27,-99.99,,,0.00,831.0,cwc,2013-07-24 16:50:00,
2013-07-24 10:55:00,87.5,61.2,29.71,West,272,3.0,-999.0,27,-99.99,,,0.00,851.0,cwc,2013-07-24 16:55:00,
2013-07-24 11:00:00,88.0,61.4,29.70,WNW,292,0.0,-999.0,26,-99.99,,,0.00,861.0,cwc,2013-07-24 17:00:00,
2013-07-24 11:05:00,88.2,61.2,29.70,NW,319,4.0,-999.0,25,-99.99,,,0.00,881.0,cwc,2013-07-24 17:05:00,
2013-07-24 11:10:00,88.5,60.8,29.70,NW,314,4.0,-999.0,23,-99.99,,,0.00,858.0,cwc,2013-07-24 17:10:00,
2013-07-24 11:15:00,88.7,61.0,29.70,NNW,334,5.0,-999.0,23,-99.99,,,0.00,889.0,cwc,2013-07-24 17:15:00,
2013-07-24 11:20:00,89.1,61.0,29.70,NNW,335,0.0,-999.0,22,-99.99,,,0.00,916.0,cwc,2013-07-24 17:20:00,
2013-07-24 11:25:00,89.7,61.6,29.70,WNW,300,1.0,-999.0,22,-99.99,,,0.00,953.0,cwc,2013-07-24 17:25:00,
2013-07-24 11:35:00,90.3,61.5,29.70,SW,223,6.0,-999.0,20,-99.99,,,0.00,928.0,cwc,2013-07-24 17:35:00,
2013-07-24 11:40:00,89.8,61.4,29.70,SSW,200,11.0,-999.0,21,-99.99,,,0.00,928.0,cwc,2013-07-24 17:40:00,
2013-07-24 11:45:00,89.2,61.1,29.70,SSW,202,10.0,-999.0,22,-99.99,,,0.00,214.0,cwc,2013-07-24 17:45:00,
2013-07-24 11:50:00,89.1,61.4,29.69,SSW,203,0.0,-999.0,23,-99.99,,,0.00,967.0,cwc,2013-07-24 17:50:00,
2013-07-24 11:55:00,89.7,61.6,29.70,SW,215,6.0,-999.0,22,-99.99,,,0.00,962.0,cwc,2013-07-24 17:55:00,
2013-07-24 12:00:00,89.3,61.2,29.70,SSW,201,7.0,-999.0,22,-99.99,,,0.00,949.0,cwc,2013-07-24 18:00:00,
2013-07-24 12:05:00,89.5,61.4,29.70,SSW,209,5.0,-999.0,22,-99.99,,,0.00,956.0,cwc,2013-07-24 18:05:00,
2013-07-24 12:15:00,89.3,61.2,29.70,SSW,209,9.0,-999.0,22,-99.99,,,0.00,967.0,cwc,2013-07-24 18:15:00,
2013-07-24 12:20:00,88.9,60.8,29.70,SSW,213,11.0,-999.0,22,-99.99,,,0.00,969.0,cwc,2013-07-24 18:20:00,
2013-07-24 12:25:00,88.8,61.1,29.69,South,175,6.0,-999.0,23,-99.99,,,0.00,979.0,cwc,2013-07-24 18:25:00,
2013-07-24 12:30:00,88.9,60.8,29.69,SSW,200,14.0,-999.0,22,-99.99,,,0.00,991.0,cwc,2013-07-24 18:30:00,
2013-07-24 12:35:00,89.0,60.9,29.70,SSW,200,10.0,-999.0,22,-99.99,,,0.00,1018.0,cwc,2013-07-24 18:35:00,
2013-07-24 12:40:00,89.4,61.3,29.68,SW,232,1.0,-999.0,22,-99.99,,,0.00,1016.0,cwc,2013-07-24 18:40:00,
2013-07-24 12:45:00,90.0,61.6,29.69,SW,214,9.0,-999.0,21,-99.99,,,0.00,1039.0,cwc,2013-07-24 18:45:00,
2013-07-24 12:55:00,90.0,61.6,29.68,SSW,200,7.0,-999.0,21,-99.99,,,0.00,1041.0,cwc,2013-07-24 18:55:00,
2013-07-24 13:00:00,90.7,61.5,29.68,SSE,152,8.0,-999.0,19,-99.99,,,0.00,1028.0,cwc,2013-07-24 19:00:00,
2013-07-24 13:05:00,91.0,62.2,29.68,SE,146,3.0,-999.0,20,-99.99,,,0.00,1021.0,cwc,2013-07-24 19:05:00,
2013-07-24 13:10:00,90.9,62.5,29.68,WSW,240,9.0,-999.0,21,-99.99,,,0.00,1030.0,cwc,2013-07-24 19:10:00,
2013-07-24 13:15:00,90.2,61.4,29.68,SSW,209,6.0,-999.0,20,-99.99,,,0.00,1032.0,cwc,2013-07-24 19:15:00,
2013-07-24 13:25:00,90.1,61.3,29.68,SSW,199,15.0,-999.0,20,-99.99,,,0.00,1020.0,cwc,2013-07-24 19:25:00,
2013-07-24 13:30:00,89.8,61.0,29.67,SW,215,9.0,-999.0,20,-99.99,,,0.00,1020.0,cwc,2013-07-24 19:30:00,
2013-07-24 13:35:00,89.3,60.5,29.66,SW,232,0.0,-999.0,20,-99.99,,,0.00,1085.0,cwc,2013-07-24 19:35:00,
2013-07-24 13:40:00,90.2,61.4,29.66,South,188,8.0,-999.0,20,-99.99,,,0.00,1099.0,cwc,2013-07-24 19:40:00,
2013-07-24 13:50:00,90.9,61.7,29.66,SSE,168,5.0,-999.0,19,-99.99,,,0.00,1109.0,cwc,2013-07-24 19:50:00,
2013-07-24 13:55:00,91.5,62.0,29.66,SSW,196,7.0,-999.0,18,-99.99,,,0.00,1088.0,cwc,2013-07-24 19:55:00,
2013-07-24 14:00:00,92.0,62.5,29.65,SW,233,0.0,-999.0,18,-99.99,,,0.00,1058.0,cwc,2013-07-24 20:00:00,
2013-07-24 14:05:00,92.6,63.1,29.65,SSW,192,7.0,-999.0,18,-99.99,,,0.00,1039.0,cwc,2013-07-24 20:05:00,
2013-07-24 14:10:00,92.6,63.1,29.64,SSE,150,4.0,-999.0,18,-99.99,,,0.00,1060.0,cwc,2013-07-24 20:10:00,
2013-07-24 14:15:00,92.8,62.9,29.64,SE,125,1.0,-999.0,17,-99.99,,,0.00,1065.0,cwc,2013-07-24 20:15:00,
2013-07-24 14:25:00,92.0,62.8,29.64,SSE,147,1.0,-999.0,19,-99.99,,,0.00,204.0,cwc,2013-07-24 20:25:00,
2013-07-24 14:30:00,91.8,62.3,29.64,NE,56,3.0,-999.0,18,-99.99,,,0.00,1011.0,cwc,2013-07-24 20:30:00,
2013-07-24 14:40:00,92.4,62.2,29.63,SW,225,1.0,-999.0,16,-99.99,,,0.00,369.0,cwc,2013-07-24 20:40:00,
2013-07-24 14:45:00,92.6,62.7,29.63,South,184,1.0,-999.0,17,-99.99,,,0.00,1074.0,cwc,2013-07-24 20:45:00,
2013-07-24 14:50:00,92.8,62.9,29.62,SE,143,0.0,-999.0,17,-99.99,,,0.00,1023.0,cwc,2013-07-24 20:50:00,
2013-07-24 15:00:00,93.5,63.3,29.62,SE,141,4.0,-999.0,16,-99.99,,,0.00,984.0,cwc,2013-07-24 21:00:00,
2013-07-24 15:05:00,93.6,63.4,29.62,SSW,211,10.0,-999.0,16,-99.99,,,0.00,990.0,cwc,2013-07-24 21:05:00,
2013-07-24 15:15:00,93.3,63.4,29.61,SSE,161,3.0,-999.0,17,-99.99,,,0.00,204.0,cwc,2013-07-24 21:15:00,
2013-07-24 15:20:00,92.4,62.5,29.61,SSE,156,0.0,-999.0,17,-99.99,,,0.00,211.0,cwc,2013-07-24 21:20:00,
2013-07-24 15:25:00,91.8,61.6,29.61,SSE,161,6.0,-999.0,16,-99.99,,,0.00,216.0,cwc,2013-07-24 21:25:00,
2013-07-24 15:30:00,91.0,61.5,29.62,South,180,7.0,-999.0,18,-99.99,,,0.00,218.0,cwc,2013-07-24 21:30:00,
2013-07-24 15:40:00,90.4,60.9,29.61,South,181,0.0,-999.0,18,-99.99,,,0.00,297.0,cwc,2013-07-24 21:40:00,
2013-07-24 15:45:00,90.7,60.8,29.61,South,181,3.0,-999.0,17,-99.99,,,0.00,320.0,cwc,2013-07-24 21:45:00,
2013-07-24 15:55:00,90.6,61.1,29.61,South,175,5.0,-999.0,18,-99.99,,,0.00,248.0,cwc,2013-07-24 21:55:00,
2013-07-24 16:05:00,90.5,61.0,29.61,South,175,2.0,-999.0,18,-99.99,,,0.00,232.0,cwc,2013-07-24 22:05:00,
2013-07-24 16:10:00,90.6,61.1,29.61,South,175,1.0,-999.0,18,-99.99,,,0.00,269.0,cwc,2013-07-24 22:10:00,
2013-07-24 16:15:00,90.7,61.5,29.61,ENE,69,3.0,-999.0,19,-99.99,,,0.00,244.0,cwc,2013-07-24 22:15:00,
2013-07-24 16:20:00,90.7,61.5,29.61,ENE,69,1.0,-999.0,19,-99.99,,,0.00,214.0,cwc,2013-07-24 22:20:00,
2013-07-24 16:25:00,90.6,61.8,29.60,NE,40,8.0,-999.0,20,-99.99,,,0.00,188.0,cwc,2013-07-24 22:25:00,
2013-07-24 16:30:00,90.3,61.1,29.61,SSE,167,5.0,-999.0,19,-99.99,,,0.00,174.0,cwc,2013-07-24 22:30:00,
2013-07-24 16:35:00,90.1,61.3,29.61,South,172,12.0,-999.0,20,-99.99,,,0.00,181.0,cwc,2013-07-24 22:35:00,
2013-07-24 16:40:00,89.7,60.9,29.60,SSW,193,6.0,-999.0,20,-99.99,,,0.00,253.0,cwc,2013-07-24 22:40:00,
2013-07-24 16:45:00,90.1,61.3,29.61,South,178,5.0,-999.0,20,-99.99,,,0.00,236.0,cwc,2013-07-24 22:45:00,
2013-07-24 16:50:00,90.2,61.4,29.60,South,179,7.0,-999.0,20,-99.99,,,0.00,350.0,cwc,2013-07-24 22:50:00,
2013-07-24 16:55:00,90.2,61.4,29.60,SSE,157,3.0,-999.0,20,-99.99,,,0.00,304.0,cwc,2013-07-24 22:55:00,
2013-07-24 17:00:00,90.6,61.4,29.60,SE,145,2.0,-999.0,19,-99.99,,,0.00,737.0,cwc,2013-07-24 23:00:00,
2013-07-24 17:10:00,88.3,62.7,29.62,South,190,20.0,-999.0,29,-99.99,,,0.00,591.0,cwc,2013-07-24 23:10:00,
2013-07-24 17:15:00,84.0,60.2,29.62,WSW,250,21.0,-999.0,34,-99.99,,,0.00,207.0,cwc,2013-07-24 23:15:00,
2013-07-24 17:20:00,79.9,58.3,29.63,SSW,202,24.0,-999.0,40,-99.99,,,0.00,192.0,cwc,2013-07-24 23:20:00,
2013-07-24 17:25:00,78.2,57.3,29.63,SW,227,21.0,-999.0,42,-99.99,,,0.00,246.0,cwc,2013-07-24 23:25:00,
2013-07-24 17:35:00,77.3,56.8,29.64,South,177,23.0,-999.0,43,-99.99,,,0.00,272.0,cwc,2013-07-24 23:35:00,
2013-07-24 17:40:00,77.4,56.9,29.64,SW,215,25.0,-999.0,43,-99.99,,,0.00,517.0,cwc,2013-07-24 23:40:00,
2013-07-24 17:45:00,76.9,56.4,29.64,SW,215,25.0,-999.0,43,-99.99,,,0.00,225.0,cwc,2013-07-24 23:45:00,
2013-07-24 17:50:00,76.6,56.1,29.65,SSW,211,26.0,-999.0,43,-99.99,,,0.00,290.0,cwc,2013-07-24 23:50:00,
2013-07-24 17:55:00,76.2,55.7,29.65,SSW,193,35.0,-999.0,43,-99.99,,,0.00,225.0,cwc,2013-07-24 23:55:00,
2013-07-24 18:00:00,75.7,55.2,29.66,SSW,195,14.0,-999.0,43,-99.99,,,0.00,199.0,cwc,2013-07-25 00:00:00,
2013-07-24 18:10:00,74.8,55.0,29.68,SSW,200,7.0,-999.0,45,-99.99,,,0.00,100.0,cwc,2013-07-25 00:10:00,
2013-07-24 18:15:00,73.9,54.5,29.68,SSW,209,15.0,-999.0,46,-99.99,,,0.00,84.0,cwc,2013-07-25 00:15:00,
2013-07-24 18:20:00,73.4,54.3,29.68,SSW,206,16.0,-999.0,47,-99.99,,,0.00,77.0,cwc,2013-07-25 00:20:00,
2013-07-24 18:30:00,72.5,53.8,29.68,South,184,12.0,-999.0,48,-99.99,,,0.00,74.0,cwc,2013-07-25 00:30:00,
2013-07-24 18:40:00,72.2,53.5,29.69,SSW,194,15.0,-999.0,48,-99.99,,,0.00,74.0,cwc,2013-07-25 00:40:00,
2013-07-24 18:45:00,72.0,53.3,29.69,SSW,200,27.0,-999.0,48,-99.99,,,0.00,77.0,cwc,2013-07-25 00:45:00,
2013-07-24 18:50:00,71.7,53.3,29.70,SSE,163,17.0,-999.0,49,-99.99,,,0.00,79.0,cwc,2013-07-25 00:50:00,
2013-07-24 18:55:00,71.3,52.9,29.70,SSW,200,26.0,-999.0,49,-99.99,,,0.00,77.0,cwc,2013-07-25 00:55:00,
2013-07-24 19:00:00,71.0,53.0,29.71,South,187,15.0,-999.0,50,-99.99,,,0.00,69.0,cwc,2013-07-25 01:00:00,
2013-07-24 19:05:00,70.8,52.8,29.71,SW,219,27.0,-999.0,50,-99.99,,,0.00,58.0,cwc,2013-07-25 01:05:00,
2013-07-24 19:10:00,70.5,52.9,29.71,SW,218,13.0,-999.0,51,-99.99,,,0.00,53.0,cwc,2013-07-25 01:10:00,
2013-07-24 19:15:00,70.1,52.8,29.72,South,188,24.0,-999.0,52,-99.99,,,0.00,49.0,cwc,2013-07-25 01:15:00,
2013-07-24 19:25:00,69.3,52.7,29.72,SSW,209,26.0,-999.0,54,-99.99,,,0.00,53.0,cwc,2013-07-25 01:25:00,
2013-07-24 19:30:00,69.0,52.4,29.73,SSW,202,18.0,-999.0,54,-99.99,,,0.00,46.0,cwc,2013-07-25 01:30:00,
2013-07-24 19:35:00,68.8,52.6,29.72,SSW,206,24.0,-999.0,55,-99.99,,,0.00,40.0,cwc,2013-07-25 01:35:00,
2013-07-24 19:40:00,68.6,52.8,29.73,South,173,10.0,-999.0,56,-99.99,,,0.00,37.0,cwc,2013-07-25 01:40:00,
2013-07-24 19:45:00,68.5,52.7,29.73,WSW,238,25.0,-999.0,56,-99.99,,,0.00,35.0,cwc,2013-07-25 01:45:00,
2013-07-24 19:50:00,68.4,52.6,29.74,SW,230,23.0,-999.0,56,-99.99,,,0.00,35.0,cwc,2013-07-25 01:50:00,
2013-07-24 20:00:00,68.0,52.5,29.74,SSE,164,10.0,-999.0,57,-99.99,,,0.00,25.0,cwc,2013-07-25 02:00:00,
2013-07-24 20:05:00,68.0,52.9,29.75,West,276,14.0,-999.0,58,-99.99,,,0.00,19.0,cwc,2013-07-25 02:05:00,
2013-07-24 20:10:00,67.9,52.8,29.76,South,190,18.0,-999.0,58,-99.99,,,0.00,16.0,cwc,2013-07-25 02:10:00,
2013-07-24 20:15:00,67.8,52.7,29.76,SW,217,12.0,-999.0,58,-99.99,,,0.00,9.0,cwc,2013-07-25 02:15:00,
2013-07-24 20:25:00,67.8,52.7,29.77,SSW,210,16.0,-999.0,58,-99.99,,,0.00,0.0,cwc,2013-07-25 02:25:00,
2013-07-24 20:30:00,67.8,52.3,29.78,SSW,194,21.0,-999.0,57,-99.99,,,0.00,0.0,cwc,2013-07-25 02:30:00,
2013-07-24 20:35:00,67.8,52.3,29.78,SSW,200,12.0,-999.0,57,-99.99,,,0.00,0.0,cwc,2013-07-25 02:35:00,
2013-07-24 20:45:00,67.7,51.9,29.78,SSW,195,6.0,-999.0,56,-99.99,,,0.00,0.0,cwc,2013-07-25 02:45:00,
2013-07-24 20:50:00,67.7,51.9,29.78,South,191,13.0,-999.0,56,-99.99,,,0.00,0.0,cwc,2013-07-25 02:50:00,
2013-07-24 20:55:00,67.6,51.8,29.78,SSW,198,14.0,-999.0,56,-99.99,,,0.00,0.0,cwc,2013-07-25 02:55:00,
2013-07-24 21:00:00,67.5,52.0,29.79,South,170,7.0,-999.0,57,-99.99,,,0.00,0.0,cwc,2013-07-25 03:00:00,
2013-07-24 21:05:00,67.3,51.8,29.79,South,175,2.0,-999.0,57,-99.99,,,0.00,0.0,cwc,2013-07-25 03:05:00,
2013-07-24 21:15:00,67.1,51.6,29.80,SSE,157,4.0,-999.0,57,-99.99,,,0.00,0.0,cwc,2013-07-25 03:15:00,
2013-07-24 21:20:00,67.1,51.6,29.80,South,186,2.0,-999.0,57,-99.99,,,0.00,0.0,cwc,2013-07-25 03:20:00,
2013-07-24 21:25:00,67.0,51.5,29.81,SSW,192,0.0,-999.0,57,-99.99,,,0.00,0.0,cwc,2013-07-25 03:25:00,
2013-07-24 21:35:00,66.8,51.3,29.81,SSW,192,1.0,-999.0,57,-99.99,,,0.00,0.0,cwc,2013-07-25 03:35:00,
2013-07-24 21:40:00,66.7,51.2,29.81,SSW,192,1.0,-999.0,57,-99.99,,,0.00,0.0,cwc,2013-07-25 03:40:00,
2013-07-24 21:45:00,66.5,51.0,29.81,South,191,0.0,-999.0,57,-99.99,,,0.00,0.0,cwc,2013-07-25 03:45:00,
2013-07-24 21:50:00,66.3,51.2,29.82,SSW,192,0.0,-999.0,58,-99.99,,,0.00,0.0,cwc,2013-07-25 03:50:00,
2013-07-24 22:00:00,66.1,51.0,29.82,SSW,192,0.0,-999.0,58,-99.99,,,0.00,0.0,cwc,2013-07-25 04:00:00,
2013-07-24 22:05:00,66.0,50.9,29.82,South,191,0.0,-999.0,58,-99.99,,,0.00,0.0,cwc,2013-07-25 04:05:00,
2013-07-24 22:10:00,65.9,50.8,29.82,SSW,192,0.0,-999.0,58,-99.99,,,0.00,0.0,cwc,2013-07-25 04:10:00,
2013-07-24 22:15:00,65.8,50.7,29.82,South,191,0.0,-999.0,58,-99.99,,,0.00,0.0,cwc,2013-07-25 04:15:00,
2013-07-24 22:20:00,65.6,50.5,29.82,SSW,192,0.0,-999.0,58,-99.99,,,0.00,0.0,cwc,2013-07-25 04:20:00,
2013-07-24 22:25:00,65.5,50.4,29.82,South,191,0.0,-999.0,58,-99.99,,,0.00,0.0,cwc,2013-07-25 04:25:00,
2013-07-24 22:30:00,65.3,50.2,29.82,SSW,192,0.0,-999.0,58,-99.99,,,0.00,0.0,cwc,2013-07-25 04:30:00,
2013-07-24 22:35:00,65.2,50.1,29.82,SSW,192,0.0,-999.0,58,-99.99,,,0.00,0.0,cwc,2013-07-25 04:35:00,
2013-07-24 22:40:00,65.1,50.3,29.82,South,191,0.0,-999.0,59,-99.99,,,0.00,0.0,cwc,2013-07-25 04:40:00,
2013-07-24 22:45:00,65.0,50.2,29.81,SSW,192,0.0,-999.0,59,-99.99,,,0.00,0.0,cwc,2013-07-25 04:45:00,
2013-07-24 22:50:00,64.7,49.9,29.81,SSW,192,0.0,-999.0,59,-99.99,,,0.00,0.0,cwc,2013-07-25 04:50:00,
2013-07-24 22:55:00,64.5,49.7,29.80,SSW,192,0.0,-999.0,59,-99.99,,,0.00,0.0,cwc,2013-07-25 04:55:00,
2013-07-24 23:00:00,64.3,49.9,29.80,South,191,0.0,-999.0,60,-99.99,,,0.00,0.0,cwc,2013-07-25 05:00:00,
2013-07-24 23:05:00,64.3,49.9,29.80,SSW,192,0.0,-999.0,60,-99.99,,,0.00,0.0,cwc,2013-07-25 05:05:00,
2013-07-24 23:10:00,64.3,49.9,29.80,SSW,192,0.0,-999.0,60,-99.99,,,0.00,0.0,cwc,2013-07-25 05:10:00,
2013-07-24 23:15:00,64.4,50.0,29.80,South,191,0.0,-999.0,60,-99.99,,,0.00,0.0,cwc,2013-07-25 05:15:00,
2013-07-24 23:20:00,64.3,50.3,29.80,South,191,1.0,-999.0,61,-99.99,,,0.00,0.0,cwc,2013-07-25 05:20:00,
2013-07-24 23:25:00,64.3,50.3,29.80,SSW,192,0.0,-999.0,61,-99.99,,,0.00,0.0,cwc,2013-07-25 05:25:00,
2013-07-24 23:30:00,64.2,50.2,29.80,SSW,192,0.0,-999.0,61,-99.99,,,0.00,0.0,cwc,2013-07-25 05:30:00,
2013-07-24 23:35:00,64.1,50.1,29.81,SSW,192,0.0,-999.0,61,-99.99,,,0.00,0.0,cwc,2013-07-25 05:35:00,
2013-07-24 23:45:00,64.4,50.7,29.81,SSW,192,0.0,-999.0,62,-99.99,,,0.00,0.0,cwc,2013-07-25 05:45:00,
2013-07-24 23:50:00,64.5,50.8,29.80,SSW,192,0.0,-999.0,62,-99.99,,,0.00,0.0,cwc,2013-07-25 05:50:00,